KCPS

St Louis Downtown Airport

Cahokia/St Louis, Illinois, USA
METAR KCPS 141753Z 36010KT 1 1/2SM BR OVC003 07/06 A3007 RMK AO2 SLP184 60003 T00720061 10089 20072 58005
Observed Flight Rules
Dec-14 @ 17:53 UTC (36 minutes ago) Instrument Flight Rules
Wind Visibility Clouds Conditions
360° at 10 knots 1 1/2 miles
  • Overcast at 300' AGL
  • Mist
Temperatures Readings
Current 7°C / 45°F
Dewpoint 6°C / 43°F
Humidity 93%
Altimeter 30.07" Hg
Pressure 1018.4 hPa
Elevation 126
METAR KCPS 141753Z 36010KT 1 1/2SM BR OVC003 07/06 A3007 RMK AO2 SLP184 60003 T00720061 10089 20072 58005
Observed Flight Rules
Dec-14 @ 17:53 UTC
(36 minutes ago)
LIFR
Wind Visibility
360° at 10 knots 1 1/2 miles
Clouds
  • Overcast at 300' AGL
Conditions
  • Mist
Temperature Dewpoint
7°C / 45°F 6°C / 43°F
Humidity Altimeter Pressure
93% 30.07" Hg 1018.4 hPa